Time;durP1;ratioP1;P1;durP2;ratioP2;P2;SDS_P1;SDS_P2;PMS_P1;PMS_P2;Temp;Humidity;BMP_temperature;BMP_pressure;BME280_temperature;BME280_humidity;BME280_pressure;Samples;Min_cycle;Max_cycle;Signal;HPM_P1;HPM_P2
2021/09/02 00:03:52;;;;;;;15.35;8.15;;;;;;;19.84;100.00;99639.38;4451367;80;28474;-87
2021/09/02 00:09:53;;;;;;;18.15;7.90;;;;;;;19.69;100.00;99645.70;4450652;80;28477;-87
2021/09/02 00:15:54;;;;;;;14.23;7.65;;;;;;;19.87;100.00;99642.34;4431372;79;28474;-87
2021/09/02 00:21:56;;;;;;;17.45;8.20;;;;;;;19.94;100.00;99648.89;4434959;80;28467;-89
2021/09/02 00:27:57;;;;;;;17.23;7.95;;;;;;;19.94;100.00;99644.80;4434041;80;28512;-87
2021/09/02 00:33:58;;;;;;;15.72;8.25;;;;;;;19.70;100.00;99648.69;4490564;79;28561;-87
2021/09/02 00:40:00;;;;;;;17.45;9.15;;;;;;;19.73;100.00;99652.22;4512560;79;28510;-87
2021/09/02 00:46:01;;;;;;;14.33;8.28;;;;;;;19.55;100.00;99656.36;4482324;79;28568;-87
2021/09/02 00:52:28;;;;;;;16.48;8.38;;;;;;;19.56;100.00;99654.70;4398972;80;28445;-87
2021/09/02 00:58:29;;;;;;;16.20;8.78;;;;;;;19.65;100.00;99651.68;4532276;79;28469;-87
2021/09/02 01:04:31;;;;;;;15.80;8.55;;;;;;;19.80;100.00;99656.84;4451553;80;28524;-87
2021/09/02 01:10:33;;;;;;;17.37;8.23;;;;;;;20.16;100.00;99655.92;4531892;79;28473;-85
2021/09/02 01:16:34;;;;;;;15.80;8.88;;;;;;;19.58;100.00;99663.98;4451557;80;28488;-87
2021/09/02 01:22:37;;;;;;;19.57;8.80;;;;;;;19.53;100.00;99664.81;4524588;78;28444;-87
2021/09/02 01:28:38;;;;;;;16.57;8.50;;;;;;;19.41;100.00;99664.29;4492043;79;28447;-87
2021/09/02 01:34:39;;;;;;;15.75;8.83;;;;;;;19.37;100.00;99662.66;4359084;80;28482;-86
2021/09/02 01:40:47;;;;;;;16.60;8.73;;;;;;;19.65;100.00;99657.14;4368862;80;28469;-86
2021/09/02 01:46:48;;;;;;;18.37;8.73;;;;;;;19.20;100.00;99654.77;4369925;80;28571;-89
2021/09/02 01:52:54;;;;;;;15.75;8.53;;;;;;;19.39;100.00;99653.64;4381265;81;28518;-89
2021/09/02 01:58:55;;;;;;;18.15;8.65;;;;;;;19.47;100.00;99649.53;4411233;81;28475;-87
2021/09/02 02:04:56;;;;;;;16.85;8.18;;;;;;;19.41;100.00;99649.29;4382543;81;28497;-86
2021/09/02 02:10:58;;;;;;;15.53;7.80;;;;;;;19.44;100.00;99641.92;4348964;80;28482;-87
2021/09/02 02:16:59;;;;;;;17.98;9.50;;;;;;;19.41;100.00;99643.27;4382106;81;28469;-87
2021/09/02 02:23:00;;;;;;;17.87;8.58;;;;;;;19.31;100.00;99638.67;4382524;80;28458;-87
2021/09/02 02:29:03;;;;;;;18.27;8.33;;;;;;;19.27;100.00;99636.77;4382884;81;28519;-87
2021/09/02 02:35:05;;;;;;;14.75;8.18;;;;;;;19.39;100.00;99642.73;4382732;81;28524;-88
2021/09/02 02:41:07;;;;;;;16.95;9.03;;;;;;;19.20;100.00;99644.66;4382372;80;28438;-87
2021/09/02 02:47:09;;;;;;;19.50;9.53;;;;;;;19.14;100.00;99648.50;4411520;80;28472;-87
2021/09/02 02:53:10;;;;;;;20.85;9.85;;;;;;;19.13;100.00;99649.59;4383076;81;28484;-87
2021/09/02 02:59:11;;;;;;;18.95;9.00;;;;;;;18.95;100.00;99650.37;4411579;81;28492;-87
2021/09/02 03:05:13;;;;;;;21.73;9.78;;;;;;;18.93;100.00;99636.21;4377552;81;28501;-86
2021/09/02 03:11:14;;;;;;;20.27;9.98;;;;;;;18.98;100.00;99633.20;4427524;80;28451;-87
2021/09/02 03:17:15;;;;;;;19.62;9.30;;;;;;;19.09;100.00;99647.12;4411951;80;28467;-87
2021/09/02 03:23:17;;;;;;;18.87;9.45;;;;;;;18.99;100.00;99646.56;4400063;80;28507;-87
2021/09/02 03:29:18;;;;;;;17.77;9.45;;;;;;;19.01;100.00;99652.58;4436385;80;28513;-88
2021/09/02 03:35:19;;;;;;;18.42;9.13;;;;;;;19.09;100.00;99662.11;4468449;78;28476;-87
2021/09/02 03:41:21;;;;;;;20.92;10.05;;;;;;;19.06;100.00;99657.22;4450906;80;28483;-87
2021/09/02 03:47:22;;;;;;;21.07;9.90;;;;;;;18.98;100.00;99659.92;4452350;80;28508;-87
2021/09/02 03:53:23;;;;;;;17.60;9.65;;;;;;;19.27;100.00;99673.56;4453508;80;28457;-88
2021/09/02 03:59:24;;;;;;;20.30;10.15;;;;;;;19.03;100.00;99674.13;4453896;79;28520;-87
2021/09/02 04:05:26;;;;;;;20.23;10.23;;;;;;;18.97;100.00;99680.08;4445800;79;28543;-86
2021/09/02 04:11:27;;;;;;;17.67;9.25;;;;;;;19.04;100.00;99677.12;4381032;80;28433;-86
2021/09/02 04:17:28;;;;;;;19.05;10.23;;;;;;;18.82;100.00;99690.41;4376357;81;28440;-87
2021/09/02 04:23:33;;;;;;;18.32;9.53;;;;;;;18.67;100.00;99681.67;4321470;82;28476;-87
2021/09/02 04:29:34;;;;;;;16.87;8.65;;;;;;;18.93;100.00;99696.68;4361899;81;28471;-86
2021/09/02 04:35:35;;;;;;;15.50;8.45;;;;;;;18.97;100.00;99693.70;4424924;80;28452;-87
2021/09/02 04:41:37;;;;;;;17.60;8.03;;;;;;;19.02;100.00;99692.36;4419819;79;28446;-86
2021/09/02 04:47:39;;;;;;;21.75;9.25;;;;;;;19.21;100.00;99701.38;4390247;80;28480;-86
2021/09/02 04:53:40;;;;;;;17.00;8.78;;;;;;;19.23;100.00;99707.36;4368855;80;28493;-88
2021/09/02 04:59:42;;;;;;;13.15;7.67;;;;;;;19.26;100.00;99716.34;4362575;81;28531;-88
2021/09/02 05:05:43;;;;;;;12.78;7.47;;;;;;;19.31;100.00;99719.09;4341363;81;28478;-86
2021/09/02 05:11:44;;;;;;;15.90;7.72;;;;;;;19.49;100.00;99714.98;4308457;83;28507;-87
2021/09/02 05:17:47;;;;;;;14.73;7.62;;;;;;;19.29;100.00;99719.91;4295898;82;28456;-87
2021/09/02 05:23:48;;;;;;;14.75;7.08;;;;;;;19.41;100.00;99729.72;4347344;80;28470;-87
2021/09/02 05:29:49;;;;;;;16.07;8.13;;;;;;;19.32;100.00;99737.64;4412060;81;28484;-86
2021/09/02 05:35:51;;;;;;;14.00;6.55;;;;;;;19.39;100.00;99742.81;4345344;80;28551;-86
2021/09/02 05:41:53;;;;;;;12.65;6.87;;;;;;;19.39;100.00;99746.91;4323762;81;28452;-90
2021/09/02 05:48:03;;;;;;;14.98;7.08;;;;;;;19.79;100.00;99742.52;4344840;79;28466;-89
2021/09/02 05:54:04;;;;;;;15.00;7.12;;;;;;;19.80;100.00;99750.97;4357943;82;28571;-87
2021/09/02 06:00:07;;;;;;;14.65;6.60;;;;;;;20.01;100.00;99753.69;4389096;81;28552;-88
2021/09/02 06:06:10;;;;;;;16.15;6.95;;;;;;;20.41;100.00;99744.27;4371155;81;28539;-88
2021/09/02 06:12:11;;;;;;;13.20;6.75;;;;;;;20.30;100.00;99746.20;4360378;81;28452;-88
2021/09/02 06:18:13;;;;;;;10.60;6.17;;;;;;;20.64;100.00;99765.19;4363838;80;28439;-88
2021/09/02 06:24:14;;;;;;;11.73;6.72;;;;;;;20.99;100.00;99762.03;4351214;80;28511;-88
2021/09/02 06:30:15;;;;;;;10.60;6.03;;;;;;;21.12;100.00;99763.30;4316162;80;28453;-88
2021/09/02 06:36:19;;;;;;;10.98;6.20;;;;;;;21.09;98.16;99767.97;4347765;80;28472;-88
2021/09/02 06:42:20;;;;;;;12.93;6.55;;;;;;;20.93;97.15;99770.81;4348033;80;28467;-90
2021/09/02 06:48:21;;;;;;;12.05;5.47;;;;;;;21.24;94.38;99775.25;4322842;80;28531;-89
2021/09/02 06:54:23;;;;;;;13.08;6.03;;;;;;;21.28;93.77;99779.04;4334095;80;28457;-90
2021/09/02 07:00:24;;;;;;;9.35;5.58;;;;;;;20.98;91.83;99795.91;4345969;80;28549;-89
2021/09/02 07:06:25;;;;;;;11.48;6.03;;;;;;;20.81;96.20;99797.61;4300515;80;28444;-89
2021/09/02 07:12:30;;;;;;;9.38;5.58;;;;;;;21.01;100.00;99794.80;4290611;82;28500;-89
2021/09/02 07:18:31;;;;;;;11.28;6.42;;;;;;;20.79;89.15;99809.38;4334566;80;28473;-89
2021/09/02 07:24:32;;;;;;;10.20;6.37;;;;;;;21.06;97.65;99804.09;4396313;80;28464;-87
2021/09/02 07:30:34;;;;;;;9.65;5.37;;;;;;;21.38;95.13;99813.16;4367473;80;28517;-88
2021/09/02 07:36:37;;;;;;;7.83;4.65;;;;;;;21.51;88.39;99818.53;4322601;80;28509;-87
2021/09/02 07:42:39;;;;;;;8.98;5.10;;;;;;;21.84;78.98;99822.94;4358398;81;28453;-87
2021/09/02 07:48:41;;;;;;;9.45;5.80;;;;;;;21.74;84.28;99832.61;4316763;80;28469;-87
2021/09/02 07:54:43;;;;;;;8.43;4.70;;;;;;;21.95;83.05;99837.91;4310631;80;28477;-87
2021/09/02 08:00:44;;;;;;;9.35;6.45;;;;;;;21.95;76.49;99838.73;4363940;82;28457;-87
2021/09/02 08:06:45;;;;;;;9.60;5.75;;;;;;;22.20;81.09;99839.58;4359586;80;28457;-88
2021/09/02 08:12:48;;;;;;;8.63;5.45;;;;;;;21.68;74.25;99851.56;4322062;82;28499;-86
2021/09/02 08:18:49;;;;;;;8.85;5.12;;;;;;;21.96;76.54;99849.11;4345044;80;28503;-87
2021/09/02 08:24:52;;;;;;;9.45;5.65;;;;;;;22.21;67.70;99847.25;4323020;80;28521;-87
2021/09/02 08:30:56;;;;;;;7.55;4.62;;;;;;;22.50;74.62;99839.59;4307606;80;28524;-85
2021/09/02 08:36:57;;;;;;;7.35;4.60;;;;;;;22.49;67.50;99854.37;4327676;80;28564;-86
2021/09/02 08:42:59;;;;;;;7.28;5.30;;;;;;;22.74;63.70;99862.84;4339447;80;28531;-86
2021/09/02 08:49:03;;;;;;;7.25;4.65;;;;;;;22.22;67.85;99860.64;4322811;80;28496;-85
2021/09/02 08:55:05;;;;;;;6.90;3.87;;;;;;;22.05;62.16;99847.95;4419814;78;28523;-81
2021/09/02 09:01:10;;;;;;;6.22;4.10;;;;;;;22.20;62.63;99847.80;4337269;80;28555;-84
2021/09/02 09:07:10;;;;;;;8.28;4.20;;;;;;;22.74;60.92;99840.13;4330077;80;28480;-85
2021/09/02 09:13:11;;;;;;;6.53;3.87;;;;;;;22.68;59.55;99844.28;4407823;78;28515;-86
2021/09/02 09:19:35;;;;;;;7.10;4.33;;;;;;;22.77;60.80;99843.09;4326007;80;28511;-85
2021/09/02 09:25:37;;;;;;;5.58;3.92;;;;;;;22.74;62.05;99840.92;4355394;80;28462;-83
2021/09/02 09:31:38;;;;;;;6.75;4.60;;;;;;;22.76;55.77;99838.73;4334198;80;28567;-83
2021/09/02 09:37:40;;;;;;;7.05;4.90;;;;;;;22.75;57.34;99832.95;4327732;80;28444;-83
2021/09/02 09:43:42;;;;;;;6.85;4.08;;;;;;;23.26;56.85;99842.43;4324875;80;28511;-85
2021/09/02 09:49:47;;;;;;;5.83;3.83;;;;;;;23.01;52.42;99840.03;4327884;80;28471;-86
2021/09/02 09:55:52;;;;;;;10.95;5.20;;;;;;;22.97;54.81;99849.43;4337957;80;28489;-87
2021/09/02 10:01:53;;;;;;;8.50;4.95;;;;;;;23.23;55.61;99844.41;4336428;80;28495;-87
2021/09/02 10:07:54;;;;;;;8.23;4.58;;;;;;;22.91;55.81;99851.97;4327036;80;28500;-86
2021/09/02 10:13:56;;;;;;;5.85;3.92;;;;;;;23.35;54.87;99849.45;4314386;80;28440;-86
2021/09/02 10:19:58;;;;;;;5.95;3.90;;;;;;;23.47;53.09;99841.33;4348690;80;28522;-86
2021/09/02 10:26:00;;;;;;;6.17;3.80;;;;;;;23.55;52.96;99837.11;4322533;80;28538;-86
2021/09/02 10:32:27;;;;;;;6.40;3.62;;;;;;;23.83;53.87;99836.64;4412685;78;28499;-87
2021/09/02 10:38:54;;;;;;;5.50;3.22;;;;;;;23.36;53.07;99837.94;4410152;79;28469;-86
2021/09/02 10:44:55;;;;;;;5.45;2.90;;;;;;;23.71;49.51;99833.56;4313722;80;28499;-87
2021/09/02 10:50:57;;;;;;;4.62;3.20;;;;;;;23.68;48.99;99836.34;4396914;79;28504;-88
2021/09/02 10:57:11;;;;;;;4.87;2.95;;;;;;;23.56;49.93;99857.38;4400930;78;28478;-87
2021/09/02 11:03:22;;;;;;;4.60;2.87;;;;;;;23.76;50.97;99852.12;4441291;78;28892;-89
2021/09/02 11:09:31;;;;;;;5.70;3.45;;;;;;;23.54;50.55;99856.86;4348683;80;28448;-86
2021/09/02 11:15:37;;;;;;;4.20;2.37;;;;;;;23.64;51.89;99856.70;4379863;80;28492;-87
2021/09/02 11:21:39;;;;;;;5.28;2.75;;;;;;;23.53;48.85;99850.58;4342765;80;28548;-86
2021/09/02 11:27:40;;;;;;;5.05;2.42;;;;;;;24.03;48.81;99860.75;4342487;80;28446;-85
2021/09/02 11:33:48;;;;;;;5.80;3.00;;;;;;;24.09;49.08;99851.31;4388740;79;28508;-86
2021/09/02 11:39:52;;;;;;;6.67;3.12;;;;;;;24.08;51.10;99857.38;4423741;78;28487;-84
2021/09/02 11:45:54;;;;;;;4.95;2.75;;;;;;;23.92;50.37;99862.30;4416225;78;28481;-84
2021/09/02 11:51:59;;;;;;;4.00;2.52;;;;;;;24.16;49.93;99864.65;4380659;78;28502;-86
2021/09/02 11:58:04;;;;;;;4.95;3.20;;;;;;;24.00;49.69;99866.28;4375291;79;28488;-87
2021/09/02 12:04:06;;;;;;;4.37;2.87;;;;;;;23.97;51.20;99858.65;4373333;78;28477;-88
2021/09/02 12:10:09;;;;;;;5.45;3.12;;;;;;;23.60;51.50;99868.03;4325545;80;28470;-87
2021/09/02 12:16:16;;;;;;;3.65;2.65;;;;;;;24.01;49.75;99853.38;4357344;80;28508;-86
2021/09/02 12:22:18;;;;;;;4.70;3.05;;;;;;;23.85;52.36;99845.39;4337454;80;28480;-87
2021/09/02 12:28:20;;;;;;;4.83;3.20;;;;;;;23.72;50.92;99835.19;4318790;80;28499;-87
2021/09/02 12:34:30;;;;;;;5.37;3.37;;;;;;;23.76;51.27;99846.64;4366878;80;28512;-88
2021/09/02 12:40:31;;;;;;;9.10;3.70;;;;;;;23.99;50.62;99841.85;4365112;80;28520;-86
2021/09/02 12:46:59;;;;;;;5.20;2.60;;;;;;;23.81;51.59;99836.13;4339291;80;28571;-88
2021/09/02 12:53:09;;;;;;;4.30;2.60;;;;;;;24.14;49.08;99834.75;4280068;80;28527;-87
2021/09/02 12:59:10;;;;;;;4.10;2.45;;;;;;;24.21;49.42;99840.67;4346370;80;28460;-88
2021/09/02 13:05:13;;;;;;;4.10;2.67;;;;;;;24.09;46.52;99839.78;4354410;80;28505;-85
2021/09/02 13:11:15;;;;;;;4.15;2.40;;;;;;;24.15;47.24;99844.62;4355348;79;28481;-86
2021/09/02 13:17:16;;;;;;;6.65;2.67;;;;;;;24.35;47.13;99828.30;4414978;79;28489;-87
2021/09/02 13:23:17;;;;;;;5.50;3.00;;;;;;;24.45;47.83;99824.55;4328159;80;28546;-85
2021/09/02 13:29:19;;;;;;;5.47;3.35;;;;;;;23.94;48.96;99826.28;4338739;80;28446;-86
2021/09/02 13:35:20;;;;;;;4.47;2.72;;;;;;;23.99;51.16;99824.00;4326989;80;28479;-87
2021/09/02 13:41:22;;;;;;;4.47;2.70;;;;;;;23.53;51.24;99820.94;4354614;80;28462;-85
2021/09/02 13:47:23;;;;;;;4.12;2.47;;;;;;;23.32;52.26;99824.00;4335697;80;28470;-90
2021/09/02 13:53:25;;;;;;;5.72;3.62;;;;;;;23.16;51.94;99825.30;4361253;80;28500;-88
2021/09/02 13:59:26;;;;;;;6.50;2.80;;;;;;;22.98;53.08;99825.81;4356706;80;28466;-87
2021/09/02 14:05:28;;;;;;;5.17;2.40;;;;;;;22.67;54.63;99835.00;4423242;79;28519;-88
2021/09/02 14:11:30;;;;;;;6.08;2.95;;;;;;;23.01;53.43;99832.63;4372686;80;28502;-91
2021/09/02 14:17:32;;;;;;;6.47;2.90;;;;;;;22.31;56.86;99842.21;4338980;80;28448;-90
2021/09/02 14:23:34;;;;;;;3.40;2.12;;;;;;;22.70;56.71;99844.00;4318155;80;28567;-89
2021/09/02 14:29:35;;;;;;;6.10;2.92;;;;;;;22.83;56.15;99847.95;4323140;80;28463;-90
2021/09/02 14:35:37;;;;;;;4.95;2.40;;;;;;;23.03;55.78;99838.63;4314911;80;28512;-86
2021/09/02 14:41:38;;;;;;;6.67;2.70;;;;;;;23.07;56.37;99847.09;4421469;79;28459;-87
2021/09/02 14:47:39;;;;;;;5.35;2.45;;;;;;;23.02;56.91;99836.20;4354966;80;28527;-87
2021/09/02 14:53:41;;;;;;;5.33;2.47;;;;;;;23.19;57.03;99834.31;4350194;80;28456;-86
2021/09/02 14:59:42;;;;;;;5.65;2.90;;;;;;;23.32;57.87;99830.86;4341337;80;28535;-87
2021/09/02 15:05:43;;;;;;;7.47;2.95;;;;;;;23.25;58.46;99821.60;4376809;80;28557;-86
2021/09/02 15:11:45;;;;;;;4.15;2.42;;;;;;;23.09;58.43;99822.38;4353833;80;28704;-88
2021/09/02 15:17:46;;;;;;;6.42;3.58;;;;;;;23.36;59.05;99812.67;4366611;79;28522;-86
2021/09/02 15:23:47;;;;;;;6.60;3.62;;;;;;;23.23;63.54;99821.63;4345240;80;28486;-85
2021/09/02 15:29:51;;;;;;;7.90;3.58;;;;;;;23.13;60.61;99813.02;4320796;80;28512;-87
2021/09/02 15:35:52;;;;;;;5.85;3.08;;;;;;;23.04;61.89;99810.67;4444666;79;28494;-94
2021/09/02 15:41:53;;;;;;;6.03;3.50;;;;;;;23.06;62.16;99814.73;4397491;80;28466;-93
2021/09/02 15:47:55;;;;;;;7.53;3.17;;;;;;;22.65;65.77;99807.05;4365016;81;28503;-92
2021/09/02 15:53:56;;;;;;;6.17;3.20;;;;;;;22.56;66.11;99810.46;4410342;78;28468;-93
2021/09/02 15:59:57;;;;;;;7.95;3.75;;;;;;;22.50;67.65;99807.51;4377784;79;28425;-93
2021/09/02 16:05:59;;;;;;;6.45;3.45;;;;;;;22.51;68.37;99811.88;4370856;81;28498;-92
2021/09/02 16:12:00;;;;;;;6.03;3.22;;;;;;;22.60;67.91;99798.36;4401154;79;28430;-92
2021/09/02 16:18:02;;;;;;;5.42;3.35;;;;;;;22.45;69.74;99800.70;4376155;79;28480;-93
2021/09/02 16:24:03;;;;;;;7.60;3.45;;;;;;;22.23;71.85;99802.05;4364078;79;28478;-94
2021/09/02 16:30:06;;;;;;;7.50;3.33;;;;;;;22.33;71.19;99799.73;4409898;79;28460;-94
2021/09/02 16:36:09;;;;;;;7.25;4.08;;;;;;;22.20;72.53;99799.87;4395449;79;28446;-93
2021/09/02 16:42:11;;;;;;;6.35;3.70;;;;;;;22.04;73.73;99788.84;4406138;79;28478;-94
2021/09/02 16:48:12;;;;;;;6.92;4.30;;;;;;;22.02;73.77;99793.22;4381339;79;28518;-93
2021/09/02 16:54:14;;;;;;;8.00;3.85;;;;;;;22.04;73.66;99792.94;4388054;79;28462;-92
2021/09/02 17:00:16;;;;;;;9.10;4.33;;;;;;;21.98;73.80;99787.50;4381273;81;28453;-93
2021/09/02 17:06:18;;;;;;;8.18;4.17;;;;;;;21.91;75.49;99788.38;4375383;80;28524;-94
2021/09/02 17:12:19;;;;;;;7.87;4.50;;;;;;;22.00;79.33;99785.28;4368977;81;28456;-93
2021/09/02 17:18:20;;;;;;;9.38;4.00;;;;;;;21.63;78.40;99785.34;4363250;79;28487;-92
2021/09/02 17:24:22;;;;;;;9.88;5.20;;;;;;;21.65;78.70;99785.04;4412371;79;28487;-93
2021/09/02 17:30:24;;;;;;;9.00;4.90;;;;;;;21.59;85.97;99785.64;4413501;79;28472;-93
2021/09/02 17:36:25;;;;;;;7.42;4.37;;;;;;;21.29;90.91;99787.51;4391817;79;28483;-92
2021/09/02 17:42:27;;;;;;;8.93;4.40;;;;;;;20.91;96.90;99791.32;4403284;79;28469;-92
2021/09/02 17:48:28;;;;;;;9.48;4.50;;;;;;;20.59;100.00;99798.80;4389387;79;28511;-93
2021/09/02 17:54:29;;;;;;;8.90;5.15;;;;;;;20.36;100.00;99792.05;4433746;80;28464;-93
2021/09/02 18:00:31;;;;;;;12.47;4.90;;;;;;;20.18;100.00;99797.04;4392906;79;28490;-90
2021/09/02 18:06:32;;;;;;;10.98;4.45;;;;;;;20.32;100.00;99806.27;4347893;79;28968;-87
2021/09/02 18:12:33;;;;;;;8.93;5.15;;;;;;;19.93;100.00;99813.72;4339591;79;28491;-85
2021/09/02 18:18:35;;;;;;;10.00;4.97;;;;;;;19.92;100.00;99817.51;4361246;79;28500;-86
2021/09/02 18:24:38;;;;;;;11.30;5.67;;;;;;;19.67;100.00;99824.63;4347215;79;28492;-87
2021/09/02 18:30:39;;;;;;;14.07;6.10;;;;;;;19.51;100.00;99835.52;4362716;79;28486;-88
2021/09/02 18:36:41;;;;;;;11.70;6.30;;;;;;;19.57;100.00;99830.88;4358787;79;28468;-87
2021/09/02 18:42:44;;;;;;;12.47;5.90;;;;;;;19.45;100.00;99835.25;4361811;79;28467;-88
2021/09/02 18:48:47;;;;;;;12.25;5.90;;;;;;;19.09;100.00;99844.17;4352164;79;28502;-87
2021/09/02 18:54:51;;;;;;;14.80;6.37;;;;;;;19.01;100.00;99839.80;4362710;79;28464;-88
2021/09/02 19:01:04;;;;;;;11.50;6.05;;;;;;;19.01;100.00;99839.23;4356676;79;28436;-88
2021/09/02 19:07:10;;;;;;;13.53;7.85;;;;;;;19.06;100.00;99828.89;4385127;79;28490;-82
2021/09/02 19:13:10;;;;;;;14.98;6.35;;;;;;;19.18;100.00;99828.10;4340215;79;28565;-82
2021/09/02 19:19:13;;;;;;;11.97;6.80;;;;;;;19.04;100.00;99823.70;4406330;79;28507;-84
2021/09/02 19:25:15;;;;;;;12.98;6.35;;;;;;;19.04;100.00;99812.00;4370109;80;28472;-87
2021/09/02 19:31:20;;;;;;;14.25;8.35;;;;;;;18.80;100.00;99811.89;4363723;79;28520;-81
2021/09/02 19:37:26;;;;;;;14.13;7.47;;;;;;;19.02;100.00;99800.00;4360359;79;28440;-84
2021/09/02 19:43:28;;;;;;;14.68;7.53;;;;;;;18.83;100.00;99799.66;4401187;79;28484;-84
2021/09/02 19:49:31;;;;;;;14.93;7.97;;;;;;;18.53;100.00;99800.64;4402380;79;28492;-83
2021/09/02 19:55:35;;;;;;;17.90;8.48;;;;;;;18.81;100.00;99795.82;4329296;80;28546;-83
2021/09/02 20:01:37;;;;;;;15.48;8.93;;;;;;;19.00;100.00;99798.59;4352227;80;28520;-85
2021/09/02 20:07:39;;;;;;;15.65;8.35;;;;;;;18.85;100.00;99797.47;4336517;80;28508;-84
2021/09/02 20:13:40;;;;;;;15.78;8.15;;;;;;;19.17;100.00;99804.66;4337390;80;28478;-82
2021/09/02 20:19:44;;;;;;;14.78;8.93;;;;;;;19.00;100.00;99799.45;4353733;80;28446;-84
2021/09/02 20:25:46;;;;;;;16.35;9.20;;;;;;;19.11;100.00;99798.95;4341582;80;28496;-84
2021/09/02 20:31:49;;;;;;;20.15;9.68;;;;;;;18.97;100.00;99810.03;4341316;80;28499;-85
2021/09/02 20:37:55;;;;;;;15.70;8.70;;;;;;;18.56;100.00;99818.89;4411997;78;28453;-83
2021/09/02 20:43:58;;;;;;;17.00;9.07;;;;;;;18.57;100.00;99825.97;4309980;81;28459;-85
2021/09/02 20:50:05;;;;;;;17.00;8.88;;;;;;;18.57;100.00;99819.16;4356322;79;28518;-85
2021/09/02 20:56:09;;;;;;;20.68;9.05;;;;;;;18.51;100.00;99821.05;4373251;80;28520;-85
2021/09/02 21:02:16;;;;;;;16.27;8.75;;;;;;;18.65;100.00;99829.55;4359303;79;28445;-83
2021/09/02 21:08:18;;;;;;;;;;;;;;;18.62;100.00;99826.81;4357763;79;28460;-83
2021/09/02 21:14:20;;;;;;;18.70;9.55;;;;;;;18.75;100.00;99836.94;4392978;79;20488;-84
2021/09/02 21:20:23;;;;;;;17.15;8.98;;;;;;;18.62;100.00;99836.88;4377772;79;28519;-83
2021/09/02 21:26:47;;;;;;;18.30;8.78;;;;;;;18.47;100.00;99844.42;4382870;80;28479;-81
2021/09/02 21:33:24;;;;;;;15.85;9.20;;;;;;;18.35;100.00;99835.92;4292038;82;28559;-80
2021/09/02 21:39:26;;;;;;;16.57;9.33;;;;;;;18.26;100.00;99836.13;4224110;82;28503;-81
2021/09/02 21:45:33;;;;;;;17.10;8.68;;;;;;;18.09;100.00;99837.66;4231141;82;28861;-80
2021/09/02 21:57:34;;;;;;;17.55;9.78;;;;;;;18.22;100.00;99839.95;4618794;75;63263;-81
2021/09/02 22:03:38;;;;;;;17.35;9.30;;;;;;;18.17;100.00;99835.81;4542517;76;28475;-82
2021/09/02 22:09:39;;;;;;;16.32;8.55;;;;;;;17.96;100.00;99834.28;4571614;76;28513;-81
2021/09/02 22:15:45;;;;;;;15.13;8.53;;;;;;;17.81;100.00;99836.90;4570124;75;28439;-80
2021/09/02 22:21:49;;;;;;;13.75;8.78;;;;;;;17.77;100.00;99838.48;4557297;76;28526;-80
2021/09/02 22:27:52;;;;;;;13.62;8.13;;;;;;;17.56;100.00;99835.06;4557350;76;28523;-80
2021/09/02 22:33:54;;;;;;;16.23;8.68;;;;;;;17.47;100.00;99827.61;4577550;75;28441;-80
2021/09/02 22:39:57;;;;;;;15.25;8.58;;;;;;;17.56;100.00;99825.55;4580549;75;28481;-81
2021/09/02 22:46:00;;;;;;;14.18;8.70;;;;;;;17.59;100.00;99816.58;4552081;76;28522;-81
2021/09/02 22:52:03;;;;;;;15.43;8.13;;;;;;;17.51;100.00;99805.65;4527262;76;28670;-81
2021/09/02 22:58:07;;;;;;;16.95;9.00;;;;;;;17.37;100.00;99804.70;4542383;75;28509;-80
2021/09/02 23:04:08;;;;;;;13.05;8.00;;;;;;;17.39;100.00;99794.41;4556743;76;28484;-80
2021/09/02 23:10:14;;;;;;;15.70;8.73;;;;;;;17.21;100.00;99796.13;4568170;76;28510;-81
2021/09/02 23:16:21;;;;;;;15.50;8.28;;;;;;;17.17;100.00;99799.06;4574523;76;28465;-81
2021/09/02 23:22:22;;;;;;;15.20;8.35;;;;;;;17.20;100.00;99795.30;4402660;79;28451;-81
2021/09/02 23:28:29;;;;;;;15.63;8.18;;;;;;;17.36;100.00;99799.53;4452824;78;28453;-81
2021/09/02 23:34:30;;;;;;;;;;;;;;;17.13;100.00;99802.30;4583614;76;28511;-81
2021/09/02 23:40:32;;;;;;;15.40;8.50;;;;;;;16.79;100.00;99794.30;4531212;76;20230;-81
2021/09/02 23:46:37;;;;;;;13.88;7.72;;;;;;;16.95;100.00;99794.46;4549956;76;28542;-80
2021/09/02 23:52:38;;;;;;;17.40;7.78;;;;;;;17.04;100.00;99784.81;4538762;76;28520;-80
2021/09/02 23:58:40;;;;;;;15.05;7.87;;;;;;;16.97;100.00;99788.23;4567647;76;28474;-81
